sensor_id;sensor_type;location;lat;lon;timestamp;P1;durP1;ratioP1;P2;durP2;ratioP2
62580;SDS011;48640;48.770;9.148;2022-12-07T00:01:20;9.15;;;6.35;;
62580;SDS011;48640;48.770;9.148;2022-12-07T00:03:49;9.15;;;5.90;;
62580;SDS011;48640;48.770;9.148;2022-12-07T00:06:17;7.85;;;5.28;;
62580;SDS011;48640;48.770;9.148;2022-12-07T00:08:45;8.05;;;5.43;;
62580;SDS011;48640;48.770;9.148;2022-12-07T00:11:13;9.77;;;6.05;;
62580;SDS011;48640;48.770;9.148;2022-12-07T00:13:42;7.15;;;5.68;;
62580;SDS011;48640;48.770;9.148;2022-12-07T00:16:10;9.93;;;5.90;;
62580;SDS011;48640;48.770;9.148;2022-12-07T00:18:38;10.95;;;5.88;;
62580;SDS011;48640;48.770;9.148;2022-12-07T00:21:08;8.15;;;6.13;;
62580;SDS011;48640;48.770;9.148;2022-12-07T00:23:36;9.13;;;5.75;;
62580;SDS011;48640;48.770;9.148;2022-12-07T00:26:04;9.00;;;5.95;;
62580;SDS011;48640;48.770;9.148;2022-12-07T00:28:31;7.93;;;5.53;;
62580;SDS011;48640;48.770;9.148;2022-12-07T00:31:00;9.45;;;6.53;;
62580;SDS011;48640;48.770;9.148;2022-12-07T00:33:28;9.82;;;6.47;;
62580;SDS011;48640;48.770;9.148;2022-12-07T00:35:55;10.48;;;6.00;;
62580;SDS011;48640;48.770;9.148;2022-12-07T00:38:24;10.88;;;6.68;;
62580;SDS011;48640;48.770;9.148;2022-12-07T00:40:55;10.60;;;6.75;;
62580;SDS011;48640;48.770;9.148;2022-12-07T00:43:22;13.32;;;8.40;;
62580;SDS011;48640;48.770;9.148;2022-12-07T00:45:49;8.93;;;5.97;;
62580;SDS011;48640;48.770;9.148;2022-12-07T00:48:16;10.13;;;6.50;;
62580;SDS011;48640;48.770;9.148;2022-12-07T00:50:43;10.15;;;7.03;;
62580;SDS011;48640;48.770;9.148;2022-12-07T00:53:10;8.82;;;6.50;;
62580;SDS011;48640;48.770;9.148;2022-12-07T00:55:38;9.23;;;6.65;;
62580;SDS011;48640;48.770;9.148;2022-12-07T00:58:05;11.00;;;7.50;;
62580;SDS011;48640;48.770;9.148;2022-12-07T01:00:32;12.02;;;7.15;;
62580;SDS011;48640;48.770;9.148;2022-12-07T01:02:59;11.15;;;7.57;;
62580;SDS011;48640;48.770;9.148;2022-12-07T01:05:26;11.15;;;6.97;;
62580;SDS011;48640;48.770;9.148;2022-12-07T01:07:53;11.35;;;7.78;;
62580;SDS011;48640;48.770;9.148;2022-12-07T01:10:19;10.23;;;7.57;;
62580;SDS011;48640;48.770;9.148;2022-12-07T01:12:48;11.25;;;7.47;;
62580;SDS011;48640;48.770;9.148;2022-12-07T01:15:15;10.48;;;7.55;;
62580;SDS011;48640;48.770;9.148;2022-12-07T01:17:41;11.65;;;7.88;;
62580;SDS011;48640;48.770;9.148;2022-12-07T01:20:09;10.80;;;7.57;;
62580;SDS011;48640;48.770;9.148;2022-12-07T01:22:36;10.32;;;7.53;;
62580;SDS011;48640;48.770;9.148;2022-12-07T01:25:04;11.60;;;8.02;;
62580;SDS011;48640;48.770;9.148;2022-12-07T01:27:31;12.20;;;7.60;;
62580;SDS011;48640;48.770;9.148;2022-12-07T01:30:00;12.98;;;7.75;;
62580;SDS011;48640;48.770;9.148;2022-12-07T01:32:27;10.07;;;7.13;;
62580;SDS011;48640;48.770;9.148;2022-12-07T01:34:55;10.05;;;7.07;;
62580;SDS011;48640;48.770;9.148;2022-12-07T01:37:22;10.82;;;7.50;;
62580;SDS011;48640;48.770;9.148;2022-12-07T01:39:49;11.13;;;8.05;;
62580;SDS011;48640;48.770;9.148;2022-12-07T01:42:16;10.55;;;7.85;;
62580;SDS011;48640;48.770;9.148;2022-12-07T01:47:55;10.43;;;7.15;;
62580;SDS011;48640;48.770;9.148;2022-12-07T01:50:24;11.00;;;6.95;;
62580;SDS011;48640;48.770;9.148;2022-12-07T01:52:56;12.63;;;7.85;;
62580;SDS011;48640;48.770;9.148;2022-12-07T01:55:27;12.63;;;7.78;;
62580;SDS011;48640;48.770;9.148;2022-12-07T01:57:55;10.95;;;7.05;;
62580;SDS011;48640;48.770;9.148;2022-12-07T02:00:22;12.60;;;7.82;;
62580;SDS011;48640;48.770;9.148;2022-12-07T02:02:51;10.63;;;7.28;;
62580;SDS011;48640;48.770;9.148;2022-12-07T02:05:22;11.57;;;8.02;;
62580;SDS011;48640;48.770;9.148;2022-12-07T02:07:50;10.77;;;7.45;;
62580;SDS011;48640;48.770;9.148;2022-12-07T02:10:19;11.05;;;7.28;;
62580;SDS011;48640;48.770;9.148;2022-12-07T02:12:48;9.93;;;7.03;;
62580;SDS011;48640;48.770;9.148;2022-12-07T02:15:20;12.50;;;8.00;;
62580;SDS011;48640;48.770;9.148;2022-12-07T02:17:51;11.57;;;8.18;;
62580;SDS011;48640;48.770;9.148;2022-12-07T02:20:27;12.15;;;7.82;;
62580;SDS011;48640;48.770;9.148;2022-12-07T02:23:23;13.07;;;7.90;;
62580;SDS011;48640;48.770;9.148;2022-12-07T02:26:10;9.30;;;6.18;;
62580;SDS011;48640;48.770;9.148;2022-12-07T02:28:58;12.82;;;7.70;;
62580;SDS011;48640;48.770;9.148;2022-12-07T02:31:46;12.15;;;7.68;;
62580;SDS011;48640;48.770;9.148;2022-12-07T02:34:21;12.30;;;8.18;;
62580;SDS011;48640;48.770;9.148;2022-12-07T02:36:55;11.52;;;7.57;;
62580;SDS011;48640;48.770;9.148;2022-12-07T02:39:28;11.15;;;7.47;;
62580;SDS011;48640;48.770;9.148;2022-12-07T02:42:02;9.43;;;6.97;;
62580;SDS011;48640;48.770;9.148;2022-12-07T02:44:36;9.80;;;7.15;;
62580;SDS011;48640;48.770;9.148;2022-12-07T02:47:05;10.82;;;6.82;;
62580;SDS011;48640;48.770;9.148;2022-12-07T02:49:35;10.25;;;6.68;;
62580;SDS011;48640;48.770;9.148;2022-12-07T02:52:04;9.20;;;6.55;;
62580;SDS011;48640;48.770;9.148;2022-12-07T02:54:31;10.55;;;7.22;;
62580;SDS011;48640;48.770;9.148;2022-12-07T02:57:00;10.00;;;6.97;;
62580;SDS011;48640;48.770;9.148;2022-12-07T02:59:35;9.63;;;6.97;;
62580;SDS011;48640;48.770;9.148;2022-12-07T03:02:15;9.82;;;5.97;;
62580;SDS011;48640;48.770;9.148;2022-12-07T03:04:50;11.18;;;7.63;;
62580;SDS011;48640;48.770;9.148;2022-12-07T03:07:28;8.73;;;5.83;;
62580;SDS011;48640;48.770;9.148;2022-12-07T03:10:00;10.05;;;6.05;;
62580;SDS011;48640;48.770;9.148;2022-12-07T03:12:35;11.20;;;6.70;;
62580;SDS011;48640;48.770;9.148;2022-12-07T03:15:11;10.80;;;7.22;;
62580;SDS011;48640;48.770;9.148;2022-12-07T03:17:42;11.35;;;6.70;;
62580;SDS011;48640;48.770;9.148;2022-12-07T03:20:11;11.75;;;7.03;;
62580;SDS011;48640;48.770;9.148;2022-12-07T03:22:39;12.50;;;7.45;;
62580;SDS011;48640;48.770;9.148;2022-12-07T03:25:10;11.02;;;7.38;;
62580;SDS011;48640;48.770;9.148;2022-12-07T03:27:41;11.25;;;7.00;;
62580;SDS011;48640;48.770;9.148;2022-12-07T03:30:15;10.63;;;7.07;;
62580;SDS011;48640;48.770;9.148;2022-12-07T03:32:44;10.60;;;6.63;;
62580;SDS011;48640;48.770;9.148;2022-12-07T03:35:17;11.18;;;7.55;;
62580;SDS011;48640;48.770;9.148;2022-12-07T03:37:49;10.27;;;6.97;;
62580;SDS011;48640;48.770;9.148;2022-12-07T03:40:22;10.68;;;6.07;;
62580;SDS011;48640;48.770;9.148;2022-12-07T03:42:52;9.88;;;6.35;;
62580;SDS011;48640;48.770;9.148;2022-12-07T03:45:22;9.25;;;6.15;;
62580;SDS011;48640;48.770;9.148;2022-12-07T03:47:57;10.40;;;6.80;;
62580;SDS011;48640;48.770;9.148;2022-12-07T03:50:31;11.15;;;6.25;;
62580;SDS011;48640;48.770;9.148;2022-12-07T03:53:05;9.68;;;6.05;;
62580;SDS011;48640;48.770;9.148;2022-12-07T03:55:37;9.93;;;6.40;;
62580;SDS011;48640;48.770;9.148;2022-12-07T03:58:09;9.65;;;6.50;;
62580;SDS011;48640;48.770;9.148;2022-12-07T04:00:39;10.73;;;6.15;;
62580;SDS011;48640;48.770;9.148;2022-12-07T04:03:07;9.45;;;5.55;;
62580;SDS011;48640;48.770;9.148;2022-12-07T04:05:34;9.02;;;5.60;;
62580;SDS011;48640;48.770;9.148;2022-12-07T04:08:01;9.30;;;5.95;;
62580;SDS011;48640;48.770;9.148;2022-12-07T04:10:28;11.05;;;6.18;;
62580;SDS011;48640;48.770;9.148;2022-12-07T04:12:55;8.88;;;5.68;;
62580;SDS011;48640;48.770;9.148;2022-12-07T04:15:22;8.43;;;5.65;;
62580;SDS011;48640;48.770;9.148;2022-12-07T04:17:50;7.93;;;5.05;;
62580;SDS011;48640;48.770;9.148;2022-12-07T04:20:17;7.97;;;5.28;;
62580;SDS011;48640;48.770;9.148;2022-12-07T04:22:44;11.02;;;6.55;;
62580;SDS011;48640;48.770;9.148;2022-12-07T04:25:10;8.25;;;5.50;;
62580;SDS011;48640;48.770;9.148;2022-12-07T04:27:37;8.65;;;5.43;;
62580;SDS011;48640;48.770;9.148;2022-12-07T04:30:05;8.10;;;5.85;;
62580;SDS011;48640;48.770;9.148;2022-12-07T04:32:32;8.00;;;5.03;;
62580;SDS011;48640;48.770;9.148;2022-12-07T04:35:00;7.38;;;4.70;;
62580;SDS011;48640;48.770;9.148;2022-12-07T04:37:27;6.78;;;4.18;;
62580;SDS011;48640;48.770;9.148;2022-12-07T04:39:54;7.68;;;4.07;;
62580;SDS011;48640;48.770;9.148;2022-12-07T04:42:21;5.45;;;3.13;;
62580;SDS011;48640;48.770;9.148;2022-12-07T04:44:47;7.07;;;3.63;;
62580;SDS011;48640;48.770;9.148;2022-12-07T04:47:14;7.15;;;4.47;;
62580;SDS011;48640;48.770;9.148;2022-12-07T04:49:41;7.45;;;4.43;;
62580;SDS011;48640;48.770;9.148;2022-12-07T04:52:09;7.00;;;3.95;;
62580;SDS011;48640;48.770;9.148;2022-12-07T04:54:36;6.60;;;4.25;;
62580;SDS011;48640;48.770;9.148;2022-12-07T04:57:03;6.95;;;4.10;;
62580;SDS011;48640;48.770;9.148;2022-12-07T04:59:30;5.32;;;3.17;;
62580;SDS011;48640;48.770;9.148;2022-12-07T05:01:56;7.35;;;4.28;;
62580;SDS011;48640;48.770;9.148;2022-12-07T05:04:23;4.22;;;2.40;;
62580;SDS011;48640;48.770;9.148;2022-12-07T05:06:50;4.28;;;2.72;;
62580;SDS011;48640;48.770;9.148;2022-12-07T05:09:18;4.82;;;2.83;;
62580;SDS011;48640;48.770;9.148;2022-12-07T05:11:45;4.68;;;2.40;;
62580;SDS011;48640;48.770;9.148;2022-12-07T05:14:13;4.60;;;2.80;;
62580;SDS011;48640;48.770;9.148;2022-12-07T05:16:42;3.92;;;2.63;;
62580;SDS011;48640;48.770;9.148;2022-12-07T05:19:09;4.60;;;2.70;;
62580;SDS011;48640;48.770;9.148;2022-12-07T05:21:37;4.78;;;3.03;;
62580;SDS011;48640;48.770;9.148;2022-12-07T05:24:05;6.47;;;3.50;;
62580;SDS011;48640;48.770;9.148;2022-12-07T05:26:34;8.43;;;4.20;;
62580;SDS011;48640;48.770;9.148;2022-12-07T05:29:01;8.35;;;3.50;;
62580;SDS011;48640;48.770;9.148;2022-12-07T05:31:28;7.30;;;3.90;;
62580;SDS011;48640;48.770;9.148;2022-12-07T05:33:55;5.90;;;3.20;;
62580;SDS011;48640;48.770;9.148;2022-12-07T05:36:22;5.95;;;3.60;;
62580;SDS011;48640;48.770;9.148;2022-12-07T05:38:49;6.00;;;3.45;;
62580;SDS011;48640;48.770;9.148;2022-12-07T05:41:17;6.40;;;4.32;;
62580;SDS011;48640;48.770;9.148;2022-12-07T05:44:03;8.65;;;4.93;;
62580;SDS011;48640;48.770;9.148;2022-12-07T05:46:31;7.75;;;4.68;;
62580;SDS011;48640;48.770;9.148;2022-12-07T05:48:58;6.70;;;4.82;;
62580;SDS011;48640;48.770;9.148;2022-12-07T05:51:25;7.50;;;4.82;;
62580;SDS011;48640;48.770;9.148;2022-12-07T05:53:52;7.65;;;4.70;;
62580;SDS011;48640;48.770;9.148;2022-12-07T05:56:18;9.55;;;5.50;;
62580;SDS011;48640;48.770;9.148;2022-12-07T05:58:45;6.40;;;4.20;;
62580;SDS011;48640;48.770;9.148;2022-12-07T06:01:31;8.48;;;4.70;;
62580;SDS011;48640;48.770;9.148;2022-12-07T06:03:58;8.07;;;4.82;;
62580;SDS011;48640;48.770;9.148;2022-12-07T06:06:25;8.32;;;5.28;;
62580;SDS011;48640;48.770;9.148;2022-12-07T06:08:52;7.60;;;4.50;;
62580;SDS011;48640;48.770;9.148;2022-12-07T06:11:18;9.07;;;4.93;;
62580;SDS011;48640;48.770;9.148;2022-12-07T06:14:03;8.73;;;4.95;;
62580;SDS011;48640;48.770;9.148;2022-12-07T06:16:31;7.15;;;5.20;;
62580;SDS011;48640;48.770;9.148;2022-12-07T06:18:57;7.07;;;3.85;;
62580;SDS011;48640;48.770;9.148;2022-12-07T06:21:24;9.45;;;5.50;;
62580;SDS011;48640;48.770;9.148;2022-12-07T06:23:51;7.93;;;5.18;;
62580;SDS011;48640;48.770;9.148;2022-12-07T06:26:18;8.98;;;4.70;;
62580;SDS011;48640;48.770;9.148;2022-12-07T06:28:45;8.80;;;5.53;;
62580;SDS011;48640;48.770;9.148;2022-12-07T06:31:12;8.40;;;4.80;;
62580;SDS011;48640;48.770;9.148;2022-12-07T06:33:40;7.35;;;4.70;;
62580;SDS011;48640;48.770;9.148;2022-12-07T06:36:07;7.85;;;5.13;;
62580;SDS011;48640;48.770;9.148;2022-12-07T06:38:35;8.45;;;5.32;;
62580;SDS011;48640;48.770;9.148;2022-12-07T06:41:02;8.50;;;5.68;;
62580;SDS011;48640;48.770;9.148;2022-12-07T06:43:29;8.38;;;5.07;;
62580;SDS011;48640;48.770;9.148;2022-12-07T06:45:56;8.57;;;4.70;;
62580;SDS011;48640;48.770;9.148;2022-12-07T06:48:23;8.18;;;4.45;;
62580;SDS011;48640;48.770;9.148;2022-12-07T06:50:51;8.23;;;4.85;;
62580;SDS011;48640;48.770;9.148;2022-12-07T06:53:18;8.93;;;5.00;;
62580;SDS011;48640;48.770;9.148;2022-12-07T06:55:45;5.97;;;4.10;;
62580;SDS011;48640;48.770;9.148;2022-12-07T06:58:12;6.68;;;4.35;;
62580;SDS011;48640;48.770;9.148;2022-12-07T07:00:38;7.10;;;3.92;;
62580;SDS011;48640;48.770;9.148;2022-12-07T07:03:05;7.57;;;4.22;;
62580;SDS011;48640;48.770;9.148;2022-12-07T07:05:32;7.85;;;4.35;;
62580;SDS011;48640;48.770;9.148;2022-12-07T07:08:00;6.97;;;4.65;;
62580;SDS011;48640;48.770;9.148;2022-12-07T07:10:27;6.78;;;4.85;;
62580;SDS011;48640;48.770;9.148;2022-12-07T07:12:54;8.00;;;4.72;;
62580;SDS011;48640;48.770;9.148;2022-12-07T07:15:21;6.07;;;3.78;;
62580;SDS011;48640;48.770;9.148;2022-12-07T07:17:48;6.65;;;4.43;;
62580;SDS011;48640;48.770;9.148;2022-12-07T07:20:14;6.88;;;4.32;;
62580;SDS011;48640;48.770;9.148;2022-12-07T07:22:42;7.40;;;4.63;;
62580;SDS011;48640;48.770;9.148;2022-12-07T07:25:10;5.82;;;3.72;;
62580;SDS011;48640;48.770;9.148;2022-12-07T07:27:36;6.03;;;4.07;;
62580;SDS011;48640;48.770;9.148;2022-12-07T07:30:04;4.95;;;3.53;;
62580;SDS011;48640;48.770;9.148;2022-12-07T07:32:31;7.13;;;4.60;;
62580;SDS011;48640;48.770;9.148;2022-12-07T07:34:58;8.70;;;4.68;;
62580;SDS011;48640;48.770;9.148;2022-12-07T07:37:25;9.30;;;4.43;;
62580;SDS011;48640;48.770;9.148;2022-12-07T07:39:52;6.22;;;3.70;;
62580;SDS011;48640;48.770;9.148;2022-12-07T07:42:20;7.18;;;4.65;;
62580;SDS011;48640;48.770;9.148;2022-12-07T07:44:47;6.28;;;3.95;;
62580;SDS011;48640;48.770;9.148;2022-12-07T07:47:14;7.10;;;4.38;;
62580;SDS011;48640;48.770;9.148;2022-12-07T07:49:41;6.55;;;3.40;;
62580;SDS011;48640;48.770;9.148;2022-12-07T07:52:08;5.68;;;3.50;;
62580;SDS011;48640;48.770;9.148;2022-12-07T07:54:34;6.57;;;4.07;;
62580;SDS011;48640;48.770;9.148;2022-12-07T07:57:01;9.20;;;3.92;;
62580;SDS011;48640;48.770;9.148;2022-12-07T07:59:29;6.43;;;4.10;;
62580;SDS011;48640;48.770;9.148;2022-12-07T08:01:56;7.65;;;4.97;;
62580;SDS011;48640;48.770;9.148;2022-12-07T08:04:23;7.07;;;4.07;;
62580;SDS011;48640;48.770;9.148;2022-12-07T08:06:50;6.57;;;4.45;;
62580;SDS011;48640;48.770;9.148;2022-12-07T08:09:17;8.07;;;4.53;;
62580;SDS011;48640;48.770;9.148;2022-12-07T08:11:44;5.72;;;3.80;;
62580;SDS011;48640;48.770;9.148;2022-12-07T08:14:11;7.57;;;3.88;;
62580;SDS011;48640;48.770;9.148;2022-12-07T08:16:39;7.45;;;3.95;;
62580;SDS011;48640;48.770;9.148;2022-12-07T08:19:06;6.30;;;4.35;;
62580;SDS011;48640;48.770;9.148;2022-12-07T08:21:33;7.95;;;4.43;;
62580;SDS011;48640;48.770;9.148;2022-12-07T08:23:59;5.47;;;3.42;;
62580;SDS011;48640;48.770;9.148;2022-12-07T08:26:26;7.32;;;3.45;;
62580;SDS011;48640;48.770;9.148;2022-12-07T08:28:53;6.35;;;4.10;;
62580;SDS011;48640;48.770;9.148;2022-12-07T08:31:20;8.13;;;4.15;;
62580;SDS011;48640;48.770;9.148;2022-12-07T08:33:48;7.07;;;4.38;;
62580;SDS011;48640;48.770;9.148;2022-12-07T08:36:15;6.72;;;3.70;;
62580;SDS011;48640;48.770;9.148;2022-12-07T08:38:42;6.50;;;3.80;;
62580;SDS011;48640;48.770;9.148;2022-12-07T08:41:09;8.13;;;4.15;;
62580;SDS011;48640;48.770;9.148;2022-12-07T08:43:36;7.63;;;3.58;;
62580;SDS011;48640;48.770;9.148;2022-12-07T08:46:05;5.22;;;3.42;;
62580;SDS011;48640;48.770;9.148;2022-12-07T08:48:36;5.28;;;3.33;;
62580;SDS011;48640;48.770;9.148;2022-12-07T08:51:06;7.43;;;3.88;;
62580;SDS011;48640;48.770;9.148;2022-12-07T08:53:34;7.57;;;3.50;;
62580;SDS011;48640;48.770;9.148;2022-12-07T08:56:02;4.85;;;2.92;;
62580;SDS011;48640;48.770;9.148;2022-12-07T08:58:31;7.85;;;3.88;;
62580;SDS011;48640;48.770;9.148;2022-12-07T09:00:58;5.45;;;3.30;;
62580;SDS011;48640;48.770;9.148;2022-12-07T09:03:25;5.50;;;3.33;;
62580;SDS011;48640;48.770;9.148;2022-12-07T09:05:52;7.43;;;3.50;;
62580;SDS011;48640;48.770;9.148;2022-12-07T09:08:20;4.22;;;2.85;;
62580;SDS011;48640;48.770;9.148;2022-12-07T09:10:48;6.00;;;3.13;;
62580;SDS011;48640;48.770;9.148;2022-12-07T09:13:15;5.68;;;2.88;;
62580;SDS011;48640;48.770;9.148;2022-12-07T09:15:42;6.15;;;3.60;;
62580;SDS011;48640;48.770;9.148;2022-12-07T09:18:09;5.95;;;3.55;;
62580;SDS011;48640;48.770;9.148;2022-12-07T09:20:35;6.50;;;3.33;;
62580;SDS011;48640;48.770;9.148;2022-12-07T09:23:02;6.05;;;3.15;;
62580;SDS011;48640;48.770;9.148;2022-12-07T09:25:33;6.22;;;3.33;;
62580;SDS011;48640;48.770;9.148;2022-12-07T09:28:00;5.93;;;3.70;;
62580;SDS011;48640;48.770;9.148;2022-12-07T09:30:27;6.47;;;3.70;;
62580;SDS011;48640;48.770;9.148;2022-12-07T09:32:54;5.13;;;3.50;;
62580;SDS011;48640;48.770;9.148;2022-12-07T09:35:21;5.85;;;3.45;;
62580;SDS011;48640;48.770;9.148;2022-12-07T09:37:48;6.25;;;3.83;;
62580;SDS011;48640;48.770;9.148;2022-12-07T09:40:15;7.00;;;3.58;;
62580;SDS011;48640;48.770;9.148;2022-12-07T09:42:47;5.72;;;3.30;;
62580;SDS011;48640;48.770;9.148;2022-12-07T09:45:17;5.32;;;3.33;;
62580;SDS011;48640;48.770;9.148;2022-12-07T09:47:47;5.45;;;3.60;;
62580;SDS011;48640;48.770;9.148;2022-12-07T09:50:15;6.00;;;3.15;;
62580;SDS011;48640;48.770;9.148;2022-12-07T09:52:45;5.50;;;3.28;;
62580;SDS011;48640;48.770;9.148;2022-12-07T09:55:13;5.97;;;3.35;;
62580;SDS011;48640;48.770;9.148;2022-12-07T09:57:44;5.57;;;3.00;;
62580;SDS011;48640;48.770;9.148;2022-12-07T10:00:13;5.97;;;3.70;;
62580;SDS011;48640;48.770;9.148;2022-12-07T10:02:42;5.05;;;2.90;;
62580;SDS011;48640;48.770;9.148;2022-12-07T10:05:12;4.78;;;2.90;;
62580;SDS011;48640;48.770;9.148;2022-12-07T10:07:41;5.95;;;3.08;;
62580;SDS011;48640;48.770;9.148;2022-12-07T10:10:12;5.85;;;2.95;;
62580;SDS011;48640;48.770;9.148;2022-12-07T10:12:56;5.10;;;3.25;;
62580;SDS011;48640;48.770;9.148;2022-12-07T10:15:40;4.10;;;2.20;;
62580;SDS011;48640;48.770;9.148;2022-12-07T10:18:20;4.90;;;2.58;;
62580;SDS011;48640;48.770;9.148;2022-12-07T10:21:01;4.30;;;2.20;;
62580;SDS011;48640;48.770;9.148;2022-12-07T10:23:36;4.50;;;2.35;;
62580;SDS011;48640;48.770;9.148;2022-12-07T10:26:20;6.07;;;2.47;;
62580;SDS011;48640;48.770;9.148;2022-12-07T10:29:00;4.75;;;2.35;;
62580;SDS011;48640;48.770;9.148;2022-12-07T10:31:28;5.78;;;2.40;;
62580;SDS011;48640;48.770;9.148;2022-12-07T10:33:56;5.20;;;3.30;;
62580;SDS011;48640;48.770;9.148;2022-12-07T10:36:25;5.25;;;2.50;;
62580;SDS011;48640;48.770;9.148;2022-12-07T10:38:53;4.78;;;2.67;;
62580;SDS011;48640;48.770;9.148;2022-12-07T10:41:26;7.50;;;3.40;;
62580;SDS011;48640;48.770;9.148;2022-12-07T10:43:53;5.65;;;2.55;;
62580;SDS011;48640;48.770;9.148;2022-12-07T10:46:32;5.10;;;2.80;;
62580;SDS011;48640;48.770;9.148;2022-12-07T10:49:17;5.30;;;3.33;;
62580;SDS011;48640;48.770;9.148;2022-12-07T10:52:10;4.65;;;2.40;;
62580;SDS011;48640;48.770;9.148;2022-12-07T10:54:49;5.68;;;2.92;;
62580;SDS011;48640;48.770;9.148;2022-12-07T10:57:32;5.63;;;2.80;;
62580;SDS011;48640;48.770;9.148;2022-12-07T11:00:13;6.57;;;3.40;;
62580;SDS011;48640;48.770;9.148;2022-12-07T11:02:52;4.50;;;2.58;;
62580;SDS011;48640;48.770;9.148;2022-12-07T11:05:33;5.65;;;2.67;;
62580;SDS011;48640;48.770;9.148;2022-12-07T11:08:12;6.07;;;2.72;;
62580;SDS011;48640;48.770;9.148;2022-12-07T11:10:45;4.82;;;2.90;;
62580;SDS011;48640;48.770;9.148;2022-12-07T11:13:21;6.03;;;3.33;;
62580;SDS011;48640;48.770;9.148;2022-12-07T11:15:54;5.32;;;3.65;;
62580;SDS011;48640;48.770;9.148;2022-12-07T11:18:38;4.57;;;2.80;;
62580;SDS011;48640;48.770;9.148;2022-12-07T11:21:13;4.97;;;2.42;;
62580;SDS011;48640;48.770;9.148;2022-12-07T11:23:48;7.57;;;3.10;;
62580;SDS011;48640;48.770;9.148;2022-12-07T11:26:32;6.28;;;2.80;;
62580;SDS011;48640;48.770;9.148;2022-12-07T11:29:13;6.13;;;2.88;;
62580;SDS011;48640;48.770;9.148;2022-12-07T11:31:57;3.40;;;1.95;;
62580;SDS011;48640;48.770;9.148;2022-12-07T11:34:39;4.78;;;2.28;;
62580;SDS011;48640;48.770;9.148;2022-12-07T11:37:13;4.00;;;2.08;;
62580;SDS011;48640;48.770;9.148;2022-12-07T11:39:44;4.40;;;2.15;;
62580;SDS011;48640;48.770;9.148;2022-12-07T11:42:19;3.53;;;1.80;;
62580;SDS011;48640;48.770;9.148;2022-12-07T11:44:50;3.97;;;2.05;;
62580;SDS011;48640;48.770;9.148;2022-12-07T11:47:20;4.32;;;2.10;;
62580;SDS011;48640;48.770;9.148;2022-12-07T11:49:56;4.10;;;1.80;;
62580;SDS011;48640;48.770;9.148;2022-12-07T11:52:30;4.35;;;1.90;;
62580;SDS011;48640;48.770;9.148;2022-12-07T11:55:14;2.67;;;1.35;;
62580;SDS011;48640;48.770;9.148;2022-12-07T11:57:48;3.42;;;1.80;;
62580;SDS011;48640;48.770;9.148;2022-12-07T12:00:20;4.13;;;1.63;;
62580;SDS011;48640;48.770;9.148;2022-12-07T12:02:49;3.65;;;1.75;;
62580;SDS011;48640;48.770;9.148;2022-12-07T12:05:21;3.10;;;1.85;;
62580;SDS011;48640;48.770;9.148;2022-12-07T12:07:51;3.78;;;2.40;;
62580;SDS011;48640;48.770;9.148;2022-12-07T12:10:26;15.82;;;3.28;;
62580;SDS011;48640;48.770;9.148;2022-12-07T12:13:18;4.75;;;2.72;;
62580;SDS011;48640;48.770;9.148;2022-12-07T12:16:01;5.68;;;3.25;;
62580;SDS011;48640;48.770;9.148;2022-12-07T12:18:45;5.18;;;3.38;;
62580;SDS011;48640;48.770;9.148;2022-12-07T12:21:32;5.93;;;3.60;;
62580;SDS011;48640;48.770;9.148;2022-12-07T12:24:02;4.93;;;3.75;;
62580;SDS011;48640;48.770;9.148;2022-12-07T12:26:35;6.50;;;3.92;;
62580;SDS011;48640;48.770;9.148;2022-12-07T12:29:03;6.43;;;4.30;;
62580;SDS011;48640;48.770;9.148;2022-12-07T12:34:04;8.73;;;4.63;;
62580;SDS011;48640;48.770;9.148;2022-12-07T12:36:58;10.52;;;5.40;;
62580;SDS011;48640;48.770;9.148;2022-12-07T12:39:25;7.40;;;4.68;;
62580;SDS011;48640;48.770;9.148;2022-12-07T12:41:53;8.23;;;4.05;;
62580;SDS011;48640;48.770;9.148;2022-12-07T12:47:43;5.97;;;3.90;;
62580;SDS011;48640;48.770;9.148;2022-12-07T12:50:24;6.53;;;3.75;;
62580;SDS011;48640;48.770;9.148;2022-12-07T12:53:00;7.45;;;4.85;;
62580;SDS011;48640;48.770;9.148;2022-12-07T12:58:40;9.52;;;4.57;;
62580;SDS011;48640;48.770;9.148;2022-12-07T13:04:17;7.00;;;4.00;;
62580;SDS011;48640;48.770;9.148;2022-12-07T13:06:49;5.82;;;3.33;;
62580;SDS011;48640;48.770;9.148;2022-12-07T13:09:22;4.78;;;3.38;;
62580;SDS011;48640;48.770;9.148;2022-12-07T13:11:55;7.72;;;3.83;;
62580;SDS011;48640;48.770;9.148;2022-12-07T13:23:10;5.78;;;2.90;;
62580;SDS011;48640;48.770;9.148;2022-12-07T13:25:46;4.20;;;2.60;;
62580;SDS011;48640;48.770;9.148;2022-12-07T13:28:20;5.70;;;3.30;;
62580;SDS011;48640;48.770;9.148;2022-12-07T13:30:57;9.20;;;6.35;;
62580;SDS011;48640;48.770;9.148;2022-12-07T13:33:30;8.63;;;5.43;;
62580;SDS011;48640;48.770;9.148;2022-12-07T13:36:00;6.60;;;3.50;;
62580;SDS011;48640;48.770;9.148;2022-12-07T13:38:28;6.88;;;3.40;;
62580;SDS011;48640;48.770;9.148;2022-12-07T13:41:10;6.57;;;5.25;;
62580;SDS011;48640;48.770;9.148;2022-12-07T13:43:46;6.78;;;3.35;;
62580;SDS011;48640;48.770;9.148;2022-12-07T13:46:16;3.90;;;2.58;;
62580;SDS011;48640;48.770;9.148;2022-12-07T13:48:46;5.95;;;2.95;;
62580;SDS011;48640;48.770;9.148;2022-12-07T13:51:17;4.93;;;2.60;;
62580;SDS011;48640;48.770;9.148;2022-12-07T13:53:46;7.70;;;3.95;;
62580;SDS011;48640;48.770;9.148;2022-12-07T13:56:15;5.13;;;2.55;;
62580;SDS011;48640;48.770;9.148;2022-12-07T13:58:42;4.50;;;2.70;;
62580;SDS011;48640;48.770;9.148;2022-12-07T14:01:10;5.10;;;3.30;;
62580;SDS011;48640;48.770;9.148;2022-12-07T14:03:38;4.72;;;2.67;;
62580;SDS011;48640;48.770;9.148;2022-12-07T14:06:23;6.88;;;3.47;;
62580;SDS011;48640;48.770;9.148;2022-12-07T14:09:05;4.85;;;3.17;;
62580;SDS011;48640;48.770;9.148;2022-12-07T14:11:34;5.55;;;3.60;;
62580;SDS011;48640;48.770;9.148;2022-12-07T14:14:02;4.13;;;2.60;;
62580;SDS011;48640;48.770;9.148;2022-12-07T14:16:31;7.25;;;3.50;;
62580;SDS011;48640;48.770;9.148;2022-12-07T14:19:00;4.60;;;2.50;;
62580;SDS011;48640;48.770;9.148;2022-12-07T14:21:29;5.83;;;2.93;;
62580;SDS011;48640;48.770;9.148;2022-12-07T14:24:10;6.05;;;3.85;;
62580;SDS011;48640;48.770;9.148;2022-12-07T14:26:41;4.78;;;3.10;;
62580;SDS011;48640;48.770;9.148;2022-12-07T14:29:22;5.18;;;3.13;;
62580;SDS011;48640;48.770;9.148;2022-12-07T14:31:56;4.10;;;2.38;;
62580;SDS011;48640;48.770;9.148;2022-12-07T14:34:24;6.00;;;2.97;;
62580;SDS011;48640;48.770;9.148;2022-12-07T14:36:51;4.78;;;2.67;;
62580;SDS011;48640;48.770;9.148;2022-12-07T14:39:18;4.30;;;2.60;;
62580;SDS011;48640;48.770;9.148;2022-12-07T14:41:46;5.07;;;3.20;;
62580;SDS011;48640;48.770;9.148;2022-12-07T14:44:16;5.32;;;3.00;;
62580;SDS011;48640;48.770;9.148;2022-12-07T14:46:44;6.00;;;3.63;;
62580;SDS011;48640;48.770;9.148;2022-12-07T14:49:11;11.70;;;6.05;;
62580;SDS011;48640;48.770;9.148;2022-12-07T14:51:38;7.85;;;4.80;;
62580;SDS011;48640;48.770;9.148;2022-12-07T14:54:06;5.78;;;3.75;;
62580;SDS011;48640;48.770;9.148;2022-12-07T14:56:41;6.18;;;3.65;;
62580;SDS011;48640;48.770;9.148;2022-12-07T14:59:10;7.45;;;3.60;;
62580;SDS011;48640;48.770;9.148;2022-12-07T15:01:37;5.97;;;3.78;;
62580;SDS011;48640;48.770;9.148;2022-12-07T15:04:04;7.10;;;4.57;;
62580;SDS011;48640;48.770;9.148;2022-12-07T15:06:31;8.23;;;4.10;;
62580;SDS011;48640;48.770;9.148;2022-12-07T15:08:57;6.53;;;4.15;;
62580;SDS011;48640;48.770;9.148;2022-12-07T15:11:24;7.35;;;4.68;;
62580;SDS011;48640;48.770;9.148;2022-12-07T15:13:51;7.65;;;4.15;;
62580;SDS011;48640;48.770;9.148;2022-12-07T15:16:40;6.97;;;4.32;;
62580;SDS011;48640;48.770;9.148;2022-12-07T15:19:10;6.95;;;4.78;;
62580;SDS011;48640;48.770;9.148;2022-12-07T15:21:40;7.75;;;4.45;;
62580;SDS011;48640;48.770;9.148;2022-12-07T15:24:08;7.50;;;4.82;;
62580;SDS011;48640;48.770;9.148;2022-12-07T15:26:35;8.02;;;4.63;;
62580;SDS011;48640;48.770;9.148;2022-12-07T15:29:03;7.70;;;4.45;;